PIA213 OPKC-OMDB
Flight info
| Callsign | PIA213 |
|---|---|
| Flight time | N/A |
| Altitude | 38000 |
| Route | MELOM A454 PASOV B540 KUPMA/N0459F240 B540 MIVEK P574 IMPED |
| Aircraft | B77W/H-SDE1E2E3FGHIJ2J3J4J5M1RWXY/LB1D1 |
Departure
| Time | 2026-04-28 12:42 |
|---|---|
| Airport | Jinnah International Airport (OPKC) |
Arrival
| Time | N/A |
|---|---|
| Airport | Dubai International Airport (OMDB) |
| Time | Latitude | Longitude | Altitude | Speed | Heading |
|---|---|---|---|---|---|
| 2026-04-28 12:15 | 24.90299 | 67.16837 | 106 ft | 0 kts | 125° |
| 2026-04-28 12:31 | 24.90309 | 67.16820 | 105 ft | 4 kts | 117° |
| 2026-04-28 12:31 | 24.90318 | 67.16792 | 106 ft | 4 kts | 96° |
| 2026-04-28 12:32 | 24.90316 | 67.16764 | 106 ft | 4 kts | 64° |
| 2026-04-28 12:32 | 24.90300 | 67.16744 | 104 ft | 4 kts | 20° |
| 2026-04-28 12:32 | 24.90283 | 67.16741 | 105 ft | 0 kts | 345° |
| 2026-04-28 12:34 | 24.90285 | 67.16740 | 105 ft | 1 kts | 345° |
| 2026-04-28 12:34 | 24.90298 | 67.16736 | 103 ft | 3 kts | 345° |
| 2026-04-28 12:35 | 24.90325 | 67.16728 | 105 ft | 5 kts | 344° |
| 2026-04-28 12:35 | 24.90364 | 67.16715 | 107 ft | 7 kts | 344° |
| 2026-04-28 12:35 | 24.90416 | 67.16699 | 106 ft | 8 kts | 344° |
| 2026-04-28 12:35 | 24.90470 | 67.16713 | 107 ft | 9 kts | 46° |
| 2026-04-28 12:36 | 24.90496 | 67.16778 | 107 ft | 10 kts | 74° |
| 2026-04-28 12:36 | 24.90517 | 67.16859 | 107 ft | 12 kts | 74° |
| 2026-04-28 12:36 | 24.90541 | 67.16953 | 105 ft | 14 kts | 74° |
| 2026-04-28 12:36 | 24.90566 | 67.17051 | 107 ft | 13 kts | 74° |
| 2026-04-28 12:37 | 24.90585 | 67.17124 | 106 ft | 10 kts | 74° |
| 2026-04-28 12:37 | 24.90605 | 67.17201 | 107 ft | 11 kts | 74° |
| 2026-04-28 12:37 | 24.90627 | 67.17284 | 107 ft | 10 kts | 74° |
| 2026-04-28 12:37 | 24.90647 | 67.17361 | 107 ft | 10 kts | 71° |
| 2026-04-28 12:38 | 24.90663 | 67.17394 | 107 ft | 0 kts | 53° |
| 2026-04-28 12:39 | 24.90670 | 67.17405 | 107 ft | 4 kts | 52° |
| 2026-04-28 12:39 | 24.90701 | 67.17432 | 107 ft | 7 kts | 33° |
| 2026-04-28 12:39 | 24.90750 | 67.17464 | 108 ft | 6 kts | 30° |
| 2026-04-28 12:40 | 24.90750 | 67.17465 | 109 ft | 0 kts | 30° |
| 2026-04-28 12:40 | 24.90778 | 67.17482 | 109 ft | 11 kts | 30° |
| 2026-04-28 12:40 | 24.90838 | 67.17483 | 110 ft | 11 kts | 332° |
| 2026-04-28 12:41 | 24.90856 | 67.17413 | 109 ft | 11 kts | 256° |
| 2026-04-28 12:41 | 24.90847 | 67.17371 | 110 ft | 0 kts | 255° |
| 2026-04-28 12:41 | 24.90843 | 67.17354 | 111 ft | 15 kts | 255° |
| 2026-04-28 12:41 | 24.90725 | 67.16892 | 110 ft | 112 kts | 254° |
| 2026-04-28 12:42 | 24.90423 | 67.15749 | 250 ft | 186 kts | 252° |
| 2026-04-28 12:42 | 24.90027 | 67.14278 | 927 ft | 210 kts | 251° |
| 2026-04-28 12:42 | 24.89683 | 67.12897 | 2569 ft | 162 kts | 255° |
| 2026-04-28 12:42 | 24.89406 | 67.11729 | 3505 ft | 161 kts | 257° |
| 2026-04-28 12:43 | 24.88833 | 67.10620 | 3805 ft | 178 kts | 223° |
| 2026-04-28 12:43 | 24.87884 | 67.09747 | 4381 ft | 180 kts | 226° |
| 2026-04-28 12:43 | 24.86941 | 67.08788 | 4887 ft | 189 kts | 227° |
| 2026-04-28 12:43 | 24.85984 | 67.07809 | 5475 ft | 190 kts | 227° |
| 2026-04-28 12:44 | 24.85023 | 67.06829 | 6128 ft | 188 kts | 228° |
| 2026-04-28 12:44 | 24.84034 | 67.05816 | 6521 ft | 202 kts | 227° |
| 2026-04-28 12:44 | 24.82954 | 67.04709 | 6800 ft | 222 kts | 227° |
| 2026-04-28 12:44 | 24.81767 | 67.03497 | 7088 ft | 243 kts | 227° |
| 2026-04-28 12:45 | 24.80502 | 67.02207 | 7549 ft | 256 kts | 226° |
| 2026-04-28 12:45 | 24.79193 | 67.00861 | 8157 ft | 258 kts | 230° |
| 2026-04-28 12:45 | 24.78318 | 66.99221 | 8718 ft | 257 kts | 255° |
| 2026-04-28 12:45 | 24.78119 | 66.97265 | 9532 ft | 261 kts | 274° |
| 2026-04-28 12:46 | 24.78321 | 66.95231 | 10154 ft | 276 kts | 277° |
| 2026-04-28 12:46 | 24.78576 | 66.93033 | 10450 ft | 305 kts | 277° |
| 2026-04-28 12:46 | 24.78857 | 66.90605 | 10669 ft | 335 kts | 277° |
| 2026-04-28 12:46 | 24.79148 | 66.88003 | 11030 ft | 356 kts | 276° |
| 2026-04-28 12:47 | 24.79444 | 66.85255 | 11754 ft | 366 kts | 276° |
| 2026-04-28 12:47 | 24.79765 | 66.82460 | 12553 ft | 368 kts | 280° |
| 2026-04-28 12:47 | 24.80645 | 66.79775 | 13223 ft | 380 kts | 297° |
| 2026-04-28 12:47 | 24.82253 | 66.77446 | 14063 ft | 384 kts | 312° |
| 2026-04-28 12:48 | 24.84187 | 66.75395 | 14881 ft | 388 kts | 314° |
| 2026-04-28 12:48 | 24.86171 | 66.73355 | 15706 ft | 392 kts | 314° |
| 2026-04-28 12:48 | 24.88169 | 66.71303 | 16567 ft | 394 kts | 314° |
| 2026-04-28 12:48 | 24.88182 | 66.71290 | 16573 ft | 394 kts | 314° |
| 2026-04-28 12:49 | 24.88709 | 66.70745 | 16794 ft | 395 kts | 314° |
| 2026-04-28 12:49 | 24.89481 | 66.69945 | 17112 ft | 396 kts | 314° |
| 2026-04-28 12:49 | 24.91494 | 66.67846 | 17970 ft | 400 kts | 314° |
| 2026-04-28 12:50 | 24.93514 | 66.65724 | 18670 ft | 403 kts | 314° |
| 2026-04-28 12:50 | 24.95550 | 66.63572 | 19355 ft | 408 kts | 314° |
| 2026-04-28 12:50 | 24.97579 | 66.61424 | 20033 ft | 412 kts | 314° |
| 2026-04-28 12:50 | 24.99654 | 66.59225 | 20721 ft | 416 kts | 314° |
| 2026-04-28 12:51 | 25.01745 | 66.57008 | 21410 ft | 420 kts | 314° |
| 2026-04-28 12:51 | 25.03857 | 66.54765 | 22091 ft | 421 kts | 313° |
| 2026-04-28 12:51 | 25.05680 | 66.52226 | 22532 ft | 427 kts | 299° |
| 2026-04-28 12:51 | 25.06802 | 66.49187 | 23104 ft | 429 kts | 285° |
| 2026-04-28 12:52 | 25.07508 | 66.45972 | 23594 ft | 434 kts | 284° |
| 2026-04-28 12:52 | 25.08195 | 66.42721 | 24142 ft | 436 kts | 284° |
| 2026-04-28 12:52 | 25.08875 | 66.39502 | 24755 ft | 437 kts | 284° |
| 2026-04-28 12:52 | 25.09572 | 66.36235 | 25349 ft | 438 kts | 284° |
| 2026-04-28 12:53 | 25.10282 | 66.32954 | 25921 ft | 441 kts | 284° |
| 2026-04-28 12:53 | 25.11003 | 66.29657 | 26455 ft | 444 kts | 284° |
| 2026-04-28 12:53 | 25.11733 | 66.26340 | 26985 ft | 446 kts | 284° |
| 2026-04-28 12:53 | 25.12220 | 66.24133 | 27332 ft | 448 kts | 284° |
| 2026-04-28 12:54 | 25.13209 | 66.19658 | 28039 ft | 450 kts | 284° |
| 2026-04-28 12:54 | 25.13952 | 66.16292 | 28500 ft | 453 kts | 284° |
| 2026-04-28 12:54 | 25.14687 | 66.12956 | 28944 ft | 455 kts | 284° |
| 2026-04-28 12:54 | 25.15437 | 66.09552 | 29374 ft | 457 kts | 284° |
| 2026-04-28 12:55 | 25.16188 | 66.06138 | 29833 ft | 458 kts | 284° |
| 2026-04-28 12:55 | 25.16935 | 66.02735 | 30337 ft | 455 kts | 284° |
| 2026-04-28 12:55 | 25.17658 | 65.99437 | 30829 ft | 454 kts | 284° |
| 2026-04-28 12:55 | 25.18397 | 65.96059 | 31276 ft | 453 kts | 285° |
| 2026-04-28 12:56 | 25.19136 | 65.92682 | 31709 ft | 452 kts | 285° |
| 2026-04-28 12:56 | 25.19874 | 65.89307 | 32115 ft | 452 kts | 285° |
| 2026-04-28 12:56 | 25.20601 | 65.85976 | 32526 ft | 452 kts | 285° |
| 2026-04-28 12:56 | 25.21335 | 65.82607 | 32958 ft | 451 kts | 285° |
| 2026-04-28 12:57 | 25.22068 | 65.79243 | 33372 ft | 450 kts | 285° |
| 2026-04-28 12:57 | 25.22798 | 65.75885 | 33755 ft | 450 kts | 286° |
| 2026-04-28 12:57 | 25.23527 | 65.72527 | 34096 ft | 449 kts | 285° |
| 2026-04-28 12:57 | 25.24254 | 65.69179 | 34450 ft | 448 kts | 285° |
| 2026-04-28 12:58 | 25.24978 | 65.65837 | 34797 ft | 447 kts | 285° |
| 2026-04-28 12:58 | 25.25691 | 65.62545 | 35119 ft | 446 kts | 285° |
| 2026-04-28 12:58 | 25.26411 | 65.59213 | 35439 ft | 446 kts | 285° |
| 2026-04-28 12:58 | 25.27130 | 65.55886 | 35755 ft | 445 kts | 285° |
| 2026-04-28 12:59 | 25.27847 | 65.52562 | 36086 ft | 444 kts | 285° |
| 2026-04-28 12:59 | 25.28561 | 65.49247 | 36416 ft | 443 kts | 285° |
| 2026-04-28 12:59 | 25.28803 | 65.48127 | 36521 ft | 443 kts | 285° |